createdAt,value
2023-02-22T00:01:35.274Z,7.13
2023-02-22T00:04:06.700Z,7.13
2023-02-22T00:06:33.264Z,7.12
2023-02-22T00:08:59.940Z,7.11
2023-02-22T00:11:26.660Z,7.09
2023-02-22T00:13:56.994Z,7.09
2023-02-22T00:16:24.301Z,7.09
2023-02-22T00:18:51.816Z,7.09
2023-02-22T00:21:18.810Z,7.09
2023-02-22T00:23:48.206Z,7.11
2023-02-22T00:26:19.317Z,7.11
2023-02-22T00:28:52.418Z,7.13
2023-02-22T00:31:19.939Z,7.11
2023-02-22T00:33:46.563Z,7.10
2023-02-22T00:36:13.561Z,7.07
2023-02-22T00:38:41.337Z,7.04
2023-02-22T00:41:08.141Z,7.03
2023-02-22T00:43:34.572Z,7.04
2023-02-22T00:46:01.092Z,7.04
2023-02-22T00:48:28.247Z,7.04
2023-02-22T00:50:55.280Z,7.03
2023-02-22T00:53:25.478Z,7.04
2023-02-22T00:55:52.708Z,7.02
2023-02-22T00:58:19.526Z,7.03
2023-02-22T01:00:46.682Z,7.03
2023-02-22T01:03:16.054Z,7.03
2023-02-22T01:05:43.175Z,7.02
2023-02-22T01:08:12.176Z,7.02
2023-02-22T01:10:39.740Z,6.98
2023-02-22T01:13:09.302Z,6.99
2023-02-22T01:15:37.734Z,6.94
2023-02-22T01:18:05.086Z,6.94
2023-02-22T01:20:32.570Z,6.94
2023-02-22T01:23:01.546Z,6.94
2023-02-22T01:25:30.270Z,6.92
2023-02-22T01:27:58.425Z,6.90
2023-02-22T01:30:28.296Z,6.89
2023-02-22T01:32:55.703Z,6.88
2023-02-22T01:35:27.836Z,6.88
2023-02-22T01:37:54.774Z,6.87
2023-02-22T01:40:30.836Z,6.88
2023-02-22T01:43:00.220Z,6.84
2023-02-22T01:45:29.988Z,6.84
2023-02-22T01:48:00.428Z,6.82
2023-02-22T01:50:27.599Z,6.81
2023-02-22T01:52:54.268Z,6.79
2023-02-22T01:55:20.709Z,6.76
2023-02-22T01:57:48.373Z,6.74
2023-02-22T02:00:20.183Z,6.76
2023-02-22T02:02:59.034Z,6.73
2023-02-22T02:05:31.455Z,6.71
2023-02-22T02:07:59.588Z,6.71
2023-02-22T02:10:26.730Z,6.69
2023-02-22T02:12:53.904Z,6.65
2023-02-22T02:15:32.815Z,6.66
2023-02-22T02:18:06.190Z,6.66
2023-02-22T02:20:47.469Z,6.65
2023-02-22T02:23:51.599Z,6.58
2023-02-22T02:26:36.571Z,6.52
2023-02-22T02:29:34.893Z,6.51
2023-02-22T02:32:22.670Z,6.47
2023-02-22T02:35:04.712Z,6.44
2023-02-22T02:37:36.773Z,6.40
2023-02-22T02:40:12.079Z,6.36
2023-02-22T02:42:46.948Z,6.35
2023-02-22T02:45:24.725Z,6.33
2023-02-22T02:47:58.774Z,6.32
2023-02-22T02:50:31.928Z,6.30
2023-02-22T02:53:04.536Z,6.29
2023-02-22T02:55:32.437Z,6.26
2023-02-22T02:58:00.173Z,6.27
2023-02-22T03:00:39.036Z,6.24
2023-02-22T03:03:11.300Z,6.19
2023-02-22T03:06:01.792Z,6.21
2023-02-22T03:08:59.155Z,6.20
2023-02-22T03:11:32.139Z,6.14
2023-02-22T03:13:58.475Z,6.07
2023-02-22T03:16:40.428Z,6.03
2023-02-22T03:19:28.255Z,6.01
2023-02-22T03:22:02.413Z,5.99
2023-02-22T03:24:39.514Z,5.98
2023-02-22T03:27:21.752Z,6.00
2023-02-22T03:29:51.494Z,5.93
2023-02-22T03:32:23.282Z,5.90
2023-02-22T03:34:57.386Z,5.88
2023-02-22T03:37:30.725Z,5.85
2023-02-22T03:40:01.613Z,5.85
2023-02-22T03:42:37.575Z,5.81
2023-02-22T03:45:07.004Z,5.78
2023-02-22T03:47:44.383Z,5.73
2023-02-22T03:50:35.629Z,5.69
2023-02-22T03:53:02.751Z,5.64
2023-02-22T03:55:31.305Z,5.61
2023-02-22T03:57:59.935Z,5.61
2023-02-22T04:00:30.600Z,5.57
2023-02-22T04:02:57.453Z,5.53
2023-02-22T04:05:24.983Z,5.47
2023-02-22T04:07:56.455Z,5.49
2023-02-22T04:10:24.463Z,5.48
2023-02-22T04:12:51.064Z,5.45
2023-02-22T04:15:21.556Z,5.46
2023-02-22T04:17:47.976Z,5.46
2023-02-22T04:20:15.295Z,5.47
2023-02-22T04:22:41.679Z,5.51
2023-02-22T04:25:08.660Z,5.54
2023-02-22T04:27:35.029Z,5.53
2023-02-22T04:30:01.444Z,5.52
2023-02-22T04:32:27.826Z,5.51
2023-02-22T04:34:54.204Z,5.54
2023-02-22T04:37:20.604Z,5.54
2023-02-22T04:39:47.094Z,5.53
2023-02-22T04:42:13.532Z,5.53
2023-02-22T04:44:39.906Z,5.54
2023-02-22T04:47:06.436Z,5.53
2023-02-22T04:49:32.879Z,5.54
2023-02-22T04:51:59.281Z,5.53
2023-02-22T04:54:25.709Z,5.55
2023-02-22T04:56:52.228Z,5.53
2023-02-22T04:59:19.754Z,5.50
2023-02-22T05:01:46.352Z,5.50
2023-02-22T05:04:12.774Z,5.50
2023-02-22T05:06:39.125Z,5.47
2023-02-22T05:09:05.562Z,5.47
2023-02-22T05:11:32.034Z,5.47
2023-02-22T05:13:58.404Z,5.47
2023-02-22T05:16:24.799Z,5.47
2023-02-22T05:18:51.319Z,5.45
2023-02-22T05:21:18.256Z,5.44
2023-02-22T05:23:44.764Z,5.46
2023-02-22T05:26:11.734Z,5.45
2023-02-22T05:28:38.545Z,5.45
2023-02-22T05:31:05.479Z,5.43
2023-02-22T05:33:31.955Z,5.44
2023-02-22T05:35:58.534Z,5.43
2023-02-22T05:38:25.193Z,5.44
2023-02-22T05:40:51.671Z,5.45
2023-02-22T05:43:18.236Z,5.42
2023-02-22T05:45:44.628Z,5.39
2023-02-22T05:48:12.883Z,5.35
2023-02-22T05:50:39.476Z,5.36
2023-02-22T05:53:06.432Z,5.36
2023-02-22T05:55:33.072Z,5.35
2023-02-22T05:57:59.460Z,5.37
2023-02-22T06:00:30.520Z,5.39
2023-02-22T06:03:02.731Z,5.39
2023-02-22T06:05:30.183Z,5.36
2023-02-22T06:07:57.696Z,5.34
2023-02-22T06:10:25.195Z,5.33
2023-02-22T06:12:52.446Z,5.33
2023-02-22T06:15:20.472Z,5.35
2023-02-22T06:17:47.431Z,5.36
2023-02-22T06:20:17.164Z,5.40
2023-02-22T06:22:44.646Z,5.40
2023-02-22T06:25:16.028Z,5.41
2023-02-22T06:27:42.623Z,5.39
2023-02-22T06:30:13.385Z,5.38
2023-02-22T06:32:39.964Z,5.37
2023-02-22T06:35:07.464Z,5.38
2023-02-22T06:37:33.862Z,5.38
2023-02-22T06:40:04.913Z,5.37
2023-02-22T06:42:31.859Z,5.38
2023-02-22T06:44:58.325Z,5.39
2023-02-22T06:47:24.777Z,5.40
2023-02-22T06:49:55.804Z,5.42
2023-02-22T06:52:22.984Z,5.41
2023-02-22T06:54:50.210Z,5.41
2023-02-22T06:57:17.075Z,5.41
2023-02-22T06:59:43.713Z,5.40
2023-02-22T07:02:11.788Z,5.42
2023-02-22T07:04:39.222Z,5.42
2023-02-22T07:07:06.546Z,5.41
2023-02-22T07:09:33.032Z,5.42
2023-02-22T07:11:59.558Z,5.41
2023-02-22T07:14:26.051Z,5.39
2023-02-22T07:16:52.470Z,5.40
2023-02-22T07:19:18.853Z,5.39
2023-02-22T07:21:47.883Z,5.41
2023-02-22T07:24:14.422Z,5.41
2023-02-22T07:26:42.288Z,5.40
2023-02-22T07:29:08.736Z,5.42
2023-02-22T07:31:37.191Z,5.45
2023-02-22T07:34:03.640Z,5.40
2023-02-22T07:36:30.082Z,5.38
2023-02-22T07:38:56.534Z,5.36
2023-02-22T07:41:23.083Z,5.34
2023-02-22T07:43:49.519Z,5.36
2023-02-22T07:46:15.930Z,5.38
2023-02-22T07:48:42.425Z,5.38
2023-02-22T07:51:10.068Z,5.39
2023-02-22T07:53:36.896Z,5.39
2023-02-22T07:56:05.571Z,5.41
2023-02-22T07:58:32.790Z,5.40
2023-02-22T08:01:01.996Z,5.42
2023-02-22T08:03:31.956Z,5.45
2023-02-22T08:06:00.422Z,5.45
2023-02-22T08:08:26.844Z,5.47
2023-02-22T08:10:53.232Z,5.49
2023-02-22T08:13:21.969Z,5.50
2023-02-22T08:15:51.891Z,5.50
2023-02-22T08:18:20.250Z,5.51
2023-02-22T08:20:49.310Z,5.51
2023-02-22T08:23:16.797Z,5.54
2023-02-22T08:25:43.213Z,5.58
2023-02-22T08:28:12.083Z,5.59
2023-02-22T08:30:40.668Z,5.61
2023-02-22T08:33:07.428Z,5.62
2023-02-22T08:35:34.033Z,5.63
2023-02-22T08:38:03.430Z,5.62
2023-02-22T08:40:32.959Z,5.63
2023-02-22T08:43:01.336Z,5.64
2023-02-22T08:45:28.470Z,5.70
2023-02-22T08:47:54.972Z,5.73
2023-02-22T08:50:27.909Z,5.80
2023-02-22T08:52:56.733Z,5.82
2023-02-22T08:55:25.084Z,5.82
2023-02-22T08:57:51.701Z,5.83
2023-02-22T09:00:19.731Z,5.87
2023-02-22T09:02:46.233Z,5.91
2023-02-22T09:05:12.908Z,5.95
2023-02-22T09:07:42.511Z,6.01
2023-02-22T09:10:17.587Z,6.06
2023-02-22T09:12:44.029Z,6.09
2023-02-22T09:15:12.370Z,6.12
2023-02-22T09:17:38.813Z,6.16
2023-02-22T09:20:06.950Z,6.19
2023-02-22T09:22:33.430Z,6.20
2023-02-22T09:25:02.608Z,6.26
2023-02-22T09:27:34.446Z,6.31
2023-02-22T09:30:00.872Z,6.35
2023-02-22T09:32:28.115Z,6.39
2023-02-22T09:34:54.740Z,6.40
2023-02-22T09:37:21.511Z,6.44
2023-02-22T09:39:48.040Z,6.44
2023-02-22T09:42:29.467Z,6.50
2023-02-22T09:45:02.424Z,6.52
2023-02-22T09:47:41.747Z,6.59
2023-02-22T09:50:17.620Z,6.66
2023-02-22T09:53:14.372Z,6.73
2023-02-22T09:55:47.813Z,6.78
2023-02-22T09:58:24.954Z,6.88
2023-02-22T10:00:59.620Z,6.97
2023-02-22T10:03:50.712Z,7.13
2023-02-22T10:06:22.710Z,7.24
2023-02-22T10:08:54.377Z,7.29
2023-02-22T10:11:43.230Z,7.33
2023-02-22T10:14:43.786Z,7.41
2023-02-22T10:17:32.016Z,7.47
2023-02-22T10:20:13.385Z,7.54
2023-02-22T10:22:49.520Z,7.64
2023-02-22T10:25:20.035Z,7.75
2023-02-22T10:28:06.490Z,7.91
2023-02-22T10:30:38.384Z,8.03
2023-02-22T10:33:15.044Z,8.10
2023-02-22T10:35:42.072Z,8.17
2023-02-22T10:38:12.512Z,8.17
2023-02-22T10:40:39.303Z,8.17
2023-02-22T10:43:08.187Z,8.20
2023-02-22T10:45:37.052Z,8.20
2023-02-22T10:48:11.681Z,8.20
2023-02-22T10:50:41.835Z,8.23
2023-02-22T10:53:09.555Z,8.25
2023-02-22T10:55:37.642Z,8.31
2023-02-22T10:58:08.767Z,8.34
2023-02-22T11:00:40.000Z,8.32
2023-02-22T11:03:20.049Z,8.33
2023-02-22T11:05:47.295Z,8.25
2023-02-22T11:08:25.923Z,8.27
2023-02-22T11:10:55.609Z,8.24
2023-02-22T11:13:31.619Z,8.27
2023-02-22T11:16:17.713Z,8.28
2023-02-22T11:18:45.739Z,8.28
2023-02-22T11:21:13.971Z,8.24
2023-02-22T11:23:44.798Z,8.24
2023-02-22T11:26:16.790Z,8.25
2023-02-22T11:28:49.998Z,8.28
2023-02-22T11:31:23.542Z,8.35
2023-02-22T11:33:59.285Z,8.45
2023-02-22T11:36:42.812Z,8.54
2023-02-22T11:39:32.362Z,8.65
2023-02-22T11:41:58.921Z,8.72
2023-02-22T11:44:30.764Z,8.81
2023-02-22T11:47:06.679Z,8.81
2023-02-22T11:49:40.489Z,8.80
2023-02-22T11:52:28.172Z,8.74
2023-02-22T11:55:36.292Z,8.69
2023-02-22T11:58:08.450Z,8.64
2023-02-22T12:01:07.070Z,8.65
2023-02-22T12:03:58.388Z,8.65
2023-02-22T12:06:58.300Z,8.65
2023-02-22T12:09:42.174Z,8.65
2023-02-22T12:12:40.457Z,8.67
2023-02-22T12:15:18.229Z,8.69
2023-02-22T12:18:05.760Z,8.71
2023-02-22T12:20:39.879Z,8.80
2023-02-22T12:23:12.889Z,8.87
2023-02-22T12:25:46.688Z,8.95
2023-02-22T12:28:38.060Z,9.08
2023-02-22T12:31:40.638Z,9.16
2023-02-22T12:34:14.235Z,9.17
2023-02-22T12:36:47.400Z,9.18
2023-02-22T12:39:52.095Z,9.27
2023-02-22T12:42:41.837Z,9.47
2023-02-22T12:45:16.887Z,9.70
2023-02-22T12:47:51.239Z,9.86
2023-02-22T12:50:23.421Z,9.92
2023-02-22T12:52:56.119Z,9.89
2023-02-22T12:55:33.080Z,9.95
2023-02-22T12:58:30.470Z,9.90
2023-02-22T13:01:00.693Z,9.83
2023-02-22T13:03:37.744Z,9.80
2023-02-22T13:06:29.126Z,9.74
2023-02-22T13:09:17.007Z,9.74
2023-02-22T13:11:55.891Z,9.74
2023-02-22T13:14:41.119Z,9.79
2023-02-22T13:17:21.046Z,9.80
2023-02-22T13:20:10.843Z,9.82
2023-02-22T13:23:00.381Z,9.85
2023-02-22T13:25:38.944Z,9.82
2023-02-22T13:28:22.312Z,9.75
2023-02-22T13:31:07.352Z,9.67
2023-02-22T13:33:43.980Z,9.66
2023-02-22T13:36:33.047Z,9.66
2023-02-22T13:39:18.182Z,9.66
2023-02-22T13:42:32.170Z,9.66
2023-02-22T13:45:35.764Z,9.70
2023-02-22T13:48:08.204Z,9.74
2023-02-22T13:50:59.578Z,9.77
2023-02-22T13:53:32.886Z,9.78
2023-02-22T13:56:00.607Z,9.72
2023-02-22T13:58:27.603Z,9.73
2023-02-22T14:00:56.975Z,9.73
2023-02-22T14:03:34.156Z,9.75
2023-02-22T14:06:01.382Z,9.75
2023-02-22T14:08:33.751Z,9.74
2023-02-22T14:11:00.858Z,9.75
2023-02-22T14:13:29.856Z,9.73
2023-02-22T14:16:05.241Z,9.70
2023-02-22T14:18:34.855Z,9.66
2023-02-22T14:21:08.590Z,9.67
2023-02-22T14:23:36.469Z,9.62
2023-02-22T14:26:36.890Z,9.66
2023-02-22T14:29:09.321Z,9.63
2023-02-22T14:31:43.466Z,9.61
2023-02-22T14:34:17.443Z,9.64
2023-02-22T14:36:58.360Z,9.69
2023-02-22T14:39:43.493Z,9.71
2023-02-22T14:42:21.875Z,9.72
2023-02-22T14:44:48.755Z,9.73
2023-02-22T14:47:22.677Z,9.78
2023-02-22T14:49:52.649Z,9.79
2023-02-22T14:52:26.609Z,9.81
2023-02-22T14:55:06.185Z,9.80
2023-02-22T14:57:54.976Z,9.80
2023-02-22T15:00:31.121Z,9.80
2023-02-22T15:03:00.338Z,9.83
2023-02-22T15:05:30.352Z,9.82
2023-02-22T15:08:02.363Z,9.77
2023-02-22T15:10:45.956Z,9.74
2023-02-22T15:13:19.857Z,9.73
2023-02-22T15:15:49.674Z,9.70
2023-02-22T15:18:34.458Z,9.71
2023-02-22T15:21:23.520Z,9.70
2023-02-22T15:23:53.660Z,9.66
2023-02-22T15:26:25.645Z,9.65
2023-02-22T15:28:59.538Z,9.66
2023-02-22T15:31:35.081Z,9.65
2023-02-22T15:34:27.248Z,9.66
2023-02-22T15:36:56.140Z,9.61
2023-02-22T15:39:33.136Z,9.60
2023-02-22T15:42:08.162Z,9.61
2023-02-22T15:44:43.326Z,9.59
2023-02-22T15:47:27.391Z,9.59
2023-02-22T15:50:25.930Z,9.57
2023-02-22T15:52:59.110Z,9.54
2023-02-22T15:55:29.925Z,9.54
2023-02-22T15:58:01.749Z,9.53
2023-02-22T16:00:41.515Z,9.52
2023-02-22T16:03:11.387Z,9.49
2023-02-22T16:05:45.952Z,9.50
2023-02-22T16:08:20.371Z,9.48
2023-02-22T16:11:01.042Z,9.47
2023-02-22T16:13:35.587Z,9.43
2023-02-22T16:16:03.355Z,9.39
2023-02-22T16:18:36.888Z,9.37
2023-02-22T16:21:07.221Z,9.34
2023-02-22T16:23:50.801Z,9.31
2023-02-22T16:26:30.808Z,9.26
2023-02-22T16:28:58.464Z,9.21
2023-02-22T16:31:36.809Z,9.19
2023-02-22T16:34:06.058Z,9.14
2023-02-22T16:36:38.220Z,9.12
2023-02-22T16:39:14.061Z,9.09
2023-02-22T16:41:40.566Z,9.05
2023-02-22T16:44:07.995Z,9.02
2023-02-22T16:46:35.077Z,8.98
2023-02-22T16:49:03.310Z,8.96
2023-02-22T16:51:44.849Z,8.96
2023-02-22T16:54:13.962Z,8.92
2023-02-22T16:56:41.230Z,8.89
2023-02-22T16:59:12.329Z,8.91
2023-02-22T17:01:38.767Z,8.85
2023-02-22T17:04:28.680Z,8.86
2023-02-22T17:06:55.066Z,8.81
2023-02-22T17:09:21.533Z,8.79
2023-02-22T17:11:51.342Z,8.77
2023-02-22T17:14:23.064Z,8.75
2023-02-22T17:16:50.639Z,8.75
2023-02-22T17:19:19.776Z,8.77
2023-02-22T17:21:46.265Z,8.80
2023-02-22T17:24:14.182Z,8.81
2023-02-22T17:26:41.572Z,8.82
2023-02-22T17:29:08.052Z,8.83
2023-02-22T17:31:35.232Z,8.84
2023-02-22T17:34:04.488Z,8.85
2023-02-22T17:36:32.687Z,8.84
2023-02-22T17:39:00.195Z,8.85
2023-02-22T17:41:26.624Z,8.84
2023-02-22T17:43:54.457Z,8.84
2023-02-22T17:46:21.100Z,8.86
2023-02-22T17:48:53.598Z,8.86
2023-02-22T17:51:22.278Z,8.84
2023-02-22T17:53:48.708Z,8.84
2023-02-22T17:56:18.701Z,8.84
2023-02-22T17:58:47.845Z,8.84
2023-02-22T18:01:26.899Z,8.84
2023-02-22T18:03:55.119Z,8.81
2023-02-22T18:06:25.408Z,8.80
2023-02-22T18:08:55.742Z,8.80
2023-02-22T18:11:26.129Z,8.82
2023-02-22T18:13:57.393Z,8.82
2023-02-22T18:16:28.403Z,8.81
2023-02-22T18:18:55.848Z,8.82
2023-02-22T18:21:23.120Z,8.84
2023-02-22T18:23:49.731Z,8.82
2023-02-22T18:26:18.242Z,8.83
2023-02-22T18:28:44.854Z,8.83
2023-02-22T18:31:14.924Z,8.84
2023-02-22T18:33:43.181Z,8.83
2023-02-22T18:36:13.265Z,8.83
2023-02-22T18:38:43.669Z,8.83
2023-02-22T18:41:17.033Z,8.85
2023-02-22T18:43:44.247Z,8.81
2023-02-22T18:46:17.909Z,8.81
2023-02-22T18:48:46.627Z,8.79
2023-02-22T18:51:15.847Z,8.81
2023-02-22T18:53:47.121Z,8.79
2023-02-22T18:56:21.754Z,8.79
2023-02-22T18:58:52.900Z,8.80
2023-02-22T19:01:19.566Z,8.77
2023-02-22T19:03:47.264Z,8.78
2023-02-22T19:06:15.809Z,8.77
2023-02-22T19:08:43.278Z,8.75
2023-02-22T19:11:17.881Z,8.74
2023-02-22T19:13:46.537Z,8.72
2023-02-22T19:16:14.531Z,8.69
2023-02-22T19:18:44.126Z,8.69
2023-02-22T19:21:12.304Z,8.68
2023-02-22T19:23:45.510Z,8.67
2023-02-22T19:26:13.824Z,8.68
2023-02-22T19:28:40.345Z,8.67
2023-02-22T19:31:33.597Z,8.68
2023-02-22T19:34:10.290Z,8.65
2023-02-22T19:36:43.232Z,8.65
2023-02-22T19:39:09.719Z,8.63
2023-02-22T19:41:36.483Z,8.63
2023-02-22T19:44:02.934Z,8.63
2023-02-22T19:46:29.447Z,8.62
2023-02-22T19:48:56.150Z,8.61
2023-02-22T19:51:28.581Z,8.62
2023-02-22T19:54:04.368Z,8.63
2023-02-22T19:56:31.620Z,8.60
2023-02-22T19:59:02.051Z,8.60
2023-02-22T20:01:33.139Z,8.61
2023-02-22T20:04:01.999Z,8.57
2023-02-22T20:06:34.488Z,8.57
2023-02-22T20:09:02.549Z,8.56
2023-02-22T20:11:29.867Z,8.56
2023-02-22T20:13:56.229Z,8.55
2023-02-22T20:16:23.484Z,8.53
2023-02-22T20:18:50.455Z,8.53
2023-02-22T20:21:30.733Z,8.53
2023-02-22T20:24:02.460Z,8.52
2023-02-22T20:26:31.175Z,8.52
2023-02-22T20:28:59.180Z,8.50
2023-02-22T20:31:26.281Z,8.49
2023-02-22T20:33:55.519Z,8.49
2023-02-22T20:36:22.821Z,8.48
2023-02-22T20:38:56.080Z,8.50
2023-02-22T20:41:27.096Z,8.49
2023-02-22T20:43:55.256Z,8.49
2023-02-22T20:46:23.766Z,8.47
2023-02-22T20:48:55.260Z,8.47
2023-02-22T20:51:21.888Z,8.45
2023-02-22T20:53:48.826Z,8.44
2023-02-22T20:56:23.733Z,8.45
2023-02-22T20:58:50.871Z,8.44
2023-02-22T21:01:19.906Z,8.44
2023-02-22T21:03:46.905Z,8.44
2023-02-22T21:06:18.222Z,8.43
2023-02-22T21:08:49.149Z,8.43
2023-02-22T21:11:17.592Z,8.42
2023-02-22T21:13:44.205Z,8.44
2023-02-22T21:16:17.676Z,8.45
2023-02-22T21:18:44.228Z,8.44
2023-02-22T21:21:12.187Z,8.43
2023-02-22T21:23:40.568Z,8.44
2023-02-22T21:26:13.303Z,8.40
2023-02-22T21:28:50.966Z,8.41
2023-02-22T21:31:20.341Z,8.40
2023-02-22T21:33:50.322Z,8.37
2023-02-22T21:36:17.091Z,8.34
2023-02-22T21:38:47.047Z,8.34
2023-02-22T21:41:15.537Z,8.34
2023-02-22T21:43:43.356Z,8.31
2023-02-22T21:46:10.732Z,8.30
2023-02-22T21:48:38.852Z,8.28
2023-02-22T21:51:13.697Z,8.28
2023-02-22T21:53:48.818Z,8.27
2023-02-22T21:56:22.989Z,8.27
2023-02-22T21:59:00.960Z,8.26
2023-02-22T22:01:29.604Z,8.24
2023-02-22T22:03:59.648Z,8.24
2023-02-22T22:06:28.085Z,8.24
2023-02-22T22:08:55.149Z,8.22
2023-02-22T22:11:22.189Z,8.24
2023-02-22T22:13:49.110Z,8.25
2023-02-22T22:16:18.451Z,8.25
2023-02-22T22:18:47.320Z,8.24
2023-02-22T22:21:19.614Z,8.26
2023-02-22T22:23:47.540Z,8.24
2023-02-22T22:26:16.399Z,8.24
2023-02-22T22:28:57.932Z,8.21
2023-02-22T22:31:26.030Z,8.20
2023-02-22T22:33:52.926Z,8.19
2023-02-22T22:36:21.420Z,8.18
2023-02-22T22:38:48.600Z,8.17
2023-02-22T22:41:17.516Z,8.18
2023-02-22T22:43:47.487Z,8.19
2023-02-22T22:46:17.603Z,8.20
2023-02-22T22:48:46.911Z,8.19
2023-02-22T22:51:20.667Z,8.19
2023-02-22T22:53:48.734Z,8.15
2023-02-22T22:56:21.703Z,8.15
2023-02-22T22:58:48.018Z,8.14
2023-02-22T23:01:20.162Z,8.14
2023-02-22T23:03:54.841Z,8.12
2023-02-22T23:06:24.941Z,8.11
2023-02-22T23:08:59.982Z,8.10
2023-02-22T23:11:28.763Z,8.07
2023-02-22T23:13:56.376Z,8.06
2023-02-22T23:16:24.181Z,8.04
2023-02-22T23:18:51.444Z,8.05
2023-02-22T23:21:23.707Z,8.04
2023-02-22T23:23:54.864Z,8.06
2023-02-22T23:26:21.238Z,8.03
2023-02-22T23:28:48.940Z,8.05
2023-02-22T23:31:17.820Z,8.04
2023-02-22T23:33:48.118Z,8.04
2023-02-22T23:36:16.043Z,8.02
2023-02-22T23:38:43.291Z,8.03
2023-02-22T23:41:12.201Z,8.05
2023-02-22T23:43:42.900Z,8.04
2023-02-22T23:46:12.163Z,8.03
2023-02-22T23:48:40.430Z,8.02
2023-02-22T23:51:09.248Z,8.04
2023-02-22T23:53:38.144Z,8.03
2023-02-22T23:56:13.100Z,8.02
2023-02-22T23:58:42.069Z,8.02
